sensor_id;sensor_type;location;lat;lon;timestamp;pressure;altitude;pressure_sealevel;temperature;humidity
30021;BME280;16861;52.294;7.760;2022-12-26T00:01:48;99190.53;;;11.49;77.14
30021;BME280;16861;52.294;7.760;2022-12-26T00:04:16;99175.44;;;11.51;77.25
30021;BME280;16861;52.294;7.760;2022-12-26T00:07:03;99150.78;;;11.52;77.10
30021;BME280;16861;52.294;7.760;2022-12-26T00:09:31;99146.44;;;11.51;76.94
30021;BME280;16861;52.294;7.760;2022-12-26T00:11:58;99135.91;;;11.51;77.04
30021;BME280;16861;52.294;7.760;2022-12-26T00:14:24;99122.72;;;11.51;77.22
30021;BME280;16861;52.294;7.760;2022-12-26T00:16:50;99130.63;;;11.51;77.06
30021;BME280;16861;52.294;7.760;2022-12-26T00:19:17;99133.25;;;11.51;77.15
30021;BME280;16861;52.294;7.760;2022-12-26T00:21:43;99135.91;;;11.51;77.16
30021;BME280;16861;52.294;7.760;2022-12-26T00:24:10;99130.53;;;11.53;77.16
30021;BME280;16861;52.294;7.760;2022-12-26T00:26:37;99139.28;;;11.53;77.00
30021;BME280;16861;52.294;7.760;2022-12-26T00:29:03;99133.16;;;11.53;76.94
30021;BME280;16861;52.294;7.760;2022-12-26T00:31:32;99141.91;;;11.53;77.04
30021;BME280;16861;52.294;7.760;2022-12-26T00:33:59;99141.06;;;11.53;76.87
30021;BME280;16861;52.294;7.760;2022-12-26T00:36:31;99133.25;;;11.51;76.94
30021;BME280;16861;52.294;7.760;2022-12-26T00:39:00;99146.34;;;11.53;76.87
30021;BME280;16861;52.294;7.760;2022-12-26T00:41:27;99151.72;;;11.51;76.91
30021;BME280;16861;52.294;7.760;2022-12-26T00:43:54;99140.34;;;11.51;76.97
30021;BME280;16861;52.294;7.760;2022-12-26T00:46:21;99134.22;;;11.50;77.18
30021;BME280;16861;52.294;7.760;2022-12-26T00:48:48;99141.16;;;11.51;76.99
30021;BME280;16861;52.294;7.760;2022-12-26T00:51:14;99148.34;;;11.49;77.02
30021;BME280;16861;52.294;7.760;2022-12-26T00:53:41;99144.03;;;11.48;76.90
30021;BME280;16861;52.294;7.760;2022-12-26T00:56:07;99144.97;;;11.47;76.99
30021;BME280;16861;52.294;7.760;2022-12-26T00:58:34;99153.84;;;11.46;77.15
30021;BME280;16861;52.294;7.760;2022-12-26T01:01:15;99160.28;;;11.42;77.04
30021;BME280;16861;52.294;7.760;2022-12-26T01:03:43;99162.69;;;11.45;77.15
30021;BME280;16861;52.294;7.760;2022-12-26T01:06:10;99164.59;;;11.43;77.31
30021;BME280;16861;52.294;7.760;2022-12-26T01:08:37;99156.81;;;11.41;77.27
30021;BME280;16861;52.294;7.760;2022-12-26T01:11:10;99163.09;;;11.39;77.41
30021;BME280;16861;52.294;7.760;2022-12-26T01:13:37;99170.81;;;11.42;77.53
30021;BME280;16861;52.294;7.760;2022-12-26T01:16:04;99173.44;;;11.42;77.51
30021;BME280;16861;52.294;7.760;2022-12-26T01:18:33;99163.88;;;11.41;77.62
30021;BME280;16861;52.294;7.760;2022-12-26T01:21:04;99166.50;;;11.41;77.72
30021;BME280;16861;52.294;7.760;2022-12-26T01:23:31;99171.78;;;11.41;77.75
30021;BME280;16861;52.294;7.760;2022-12-26T01:25:57;99175.13;;;11.43;77.71
30021;BME280;16861;52.294;7.760;2022-12-26T01:28:44;99180.41;;;11.43;77.83
30021;BME280;16861;52.294;7.760;2022-12-26T01:31:10;99170.59;;;11.45;77.92
30021;BME280;16861;52.294;7.760;2022-12-26T01:33:37;99174.06;;;11.45;77.91
30021;BME280;16861;52.294;7.760;2022-12-26T01:36:03;99179.22;;;11.47;78.02
30021;BME280;16861;52.294;7.760;2022-12-26T01:38:30;99185.25;;;11.49;78.06
30021;BME280;16861;52.294;7.760;2022-12-26T01:40:56;99188.59;;;11.51;78.01
30021;BME280;16861;52.294;7.760;2022-12-26T01:46:15;99182.28;;;11.54;77.87
30021;BME280;16861;52.294;7.760;2022-12-26T01:48:44;99192.63;;;11.57;77.79
30021;BME280;16861;52.294;7.760;2022-12-26T01:51:12;99192.63;;;11.57;77.80
30021;BME280;16861;52.294;7.760;2022-12-26T01:56:34;99192.63;;;11.57;77.50
30021;BME280;16861;52.294;7.760;2022-12-26T01:59:08;99196.94;;;11.58;77.54
30021;BME280;16861;52.294;7.760;2022-12-26T02:01:37;99198.50;;;11.60;77.69
30021;BME280;16861;52.294;7.760;2022-12-26T02:04:07;99200.22;;;11.62;77.79
30021;BME280;16861;52.294;7.760;2022-12-26T02:06:53;99181.66;;;11.63;77.51
30021;BME280;16861;52.294;7.760;2022-12-26T02:09:20;99184.16;;;11.65;77.65
30021;BME280;16861;52.294;7.760;2022-12-26T02:11:51;99187.75;;;11.64;77.38
30021;BME280;16861;52.294;7.760;2022-12-26T02:14:39;99187.53;;;11.67;77.65
30021;BME280;16861;52.294;7.760;2022-12-26T02:17:06;99183.22;;;11.66;77.37
30021;BME280;16861;52.294;7.760;2022-12-26T02:19:48;99183.53;;;11.61;77.27
30021;BME280;16861;52.294;7.760;2022-12-26T02:25:44;99194.09;;;11.61;77.29
30021;BME280;16861;52.294;7.760;2022-12-26T02:28:28;99199.25;;;11.63;77.41
30021;BME280;16861;52.294;7.760;2022-12-26T02:44:42;99208.00;;;11.63;77.54
30021;BME280;16861;52.294;7.760;2022-12-26T02:47:35;99199.97;;;11.65;77.26
30021;BME280;16861;52.294;7.760;2022-12-26T02:53:06;99204.31;;;11.66;77.24
30021;BME280;16861;52.294;7.760;2022-12-26T02:55:59;99207.16;;;11.63;77.32
30021;BME280;16861;52.294;7.760;2022-12-26T02:59:24;99202.09;;;11.59;77.04
30021;BME280;16861;52.294;7.760;2022-12-26T03:02:37;99192.41;;;11.60;77.27
30021;BME280;16861;52.294;7.760;2022-12-26T03:05:35;99203.78;;;11.60;77.05
30021;BME280;16861;52.294;7.760;2022-12-26T03:08:35;99215.38;;;11.58;76.82
30021;BME280;16861;52.294;7.760;2022-12-26T03:11:25;99210.97;;;11.58;77.02
30021;BME280;16861;52.294;7.760;2022-12-26T03:14:17;99204.72;;;11.59;77.14
30021;BME280;16861;52.294;7.760;2022-12-26T03:16:48;99211.81;;;11.59;77.33
30021;BME280;16861;52.294;7.760;2022-12-26T03:19:38;99212.63;;;11.59;77.23
30021;BME280;16861;52.294;7.760;2022-12-26T03:22:31;99206.53;;;11.59;77.22
30021;BME280;16861;52.294;7.760;2022-12-26T03:25:00;99207.38;;;11.59;77.17
30021;BME280;16861;52.294;7.760;2022-12-26T03:27:48;99207.25;;;11.61;77.23
30021;BME280;16861;52.294;7.760;2022-12-26T03:30:15;99209.03;;;11.60;77.32
30021;BME280;16861;52.294;7.760;2022-12-26T03:33:01;99214.31;;;11.60;77.10
30021;BME280;16861;52.294;7.760;2022-12-26T03:35:31;99213.50;;;11.60;77.24
30021;BME280;16861;52.294;7.760;2022-12-26T03:38:05;99218.88;;;11.58;76.79
30021;BME280;16861;52.294;7.760;2022-12-26T03:41:07;99221.72;;;11.55;76.78
30021;BME280;16861;52.294;7.760;2022-12-26T03:44:01;99230.13;;;11.60;77.09
30021;BME280;16861;52.294;7.760;2022-12-26T03:49:55;99218.13;;;11.56;76.80
30021;BME280;16861;52.294;7.760;2022-12-26T03:52:58;99218.13;;;11.56;76.84
30021;BME280;16861;52.294;7.760;2022-12-26T03:59:02;99218.47;;;11.52;76.83
30021;BME280;16861;52.294;7.760;2022-12-26T04:01:44;99222.88;;;11.51;77.08
30021;BME280;16861;52.294;7.760;2022-12-26T04:04:33;99217.72;;;11.50;77.00
30021;BME280;16861;52.294;7.760;2022-12-26T04:07:38;99229.19;;;11.49;77.01
30021;BME280;16861;52.294;7.760;2022-12-26T04:10:30;99218.66;;;11.49;77.06
30021;BME280;16861;52.294;7.760;2022-12-26T04:16:36;99209.94;;;11.48;76.82
30021;BME280;16861;52.294;7.760;2022-12-26T04:22:10;99215.19;;;11.48;77.10
30021;BME280;16861;52.294;7.760;2022-12-26T04:25:12;99215.31;;;11.46;76.95
30021;BME280;16861;52.294;7.760;2022-12-26T04:28:18;99218.56;;;11.50;77.14
30021;BME280;16861;52.294;7.760;2022-12-26T04:31:13;99218.75;;;11.47;76.79
30021;BME280;16861;52.294;7.760;2022-12-26T04:34:05;99221.28;;;11.49;77.07
30021;BME280;16861;52.294;7.760;2022-12-26T04:36:58;99232.69;;;11.49;77.27
30021;BME280;16861;52.294;7.760;2022-12-26T04:39:47;99238.69;;;11.51;77.26
30021;BME280;16861;52.294;7.760;2022-12-26T04:42:34;99232.50;;;11.52;77.34
30021;BME280;16861;52.294;7.760;2022-12-26T04:45:21;99219.31;;;11.52;77.09
30021;BME280;16861;52.294;7.760;2022-12-26T04:47:51;99218.47;;;11.52;76.96
30021;BME280;16861;52.294;7.760;2022-12-26T04:50:50;99222.16;;;11.49;76.76
30021;BME280;16861;52.294;7.760;2022-12-26T04:53:18;99223.63;;;11.53;77.07
30021;BME280;16861;52.294;7.760;2022-12-26T04:55:45;99220.13;;;11.53;77.18
30021;BME280;16861;52.294;7.760;2022-12-26T04:58:12;99231.63;;;11.52;77.06
30021;BME280;16861;52.294;7.760;2022-12-26T05:00:38;99237.00;;;11.50;76.98
30021;BME280;16861;52.294;7.760;2022-12-26T05:03:04;99242.38;;;11.49;77.06
30021;BME280;16861;52.294;7.760;2022-12-26T05:05:50;99253.97;;;11.46;76.94
30021;BME280;16861;52.294;7.760;2022-12-26T05:08:38;99268.13;;;11.45;76.86
30021;BME280;16861;52.294;7.760;2022-12-26T05:11:25;99262.00;;;11.44;77.09
30021;BME280;16861;52.294;7.760;2022-12-26T05:13:53;99269.06;;;11.44;76.92
30021;BME280;16861;52.294;7.760;2022-12-26T05:16:21;99269.91;;;11.44;76.91
30021;BME280;16861;52.294;7.760;2022-12-26T05:19:09;99253.38;;;11.42;76.63
30021;BME280;16861;52.294;7.760;2022-12-26T05:21:55;99248.91;;;11.43;76.57
30021;BME280;16861;52.294;7.760;2022-12-26T05:24:40;99264.97;;;11.40;76.43
30021;BME280;16861;52.294;7.760;2022-12-26T05:27:33;99271.28;;;11.37;76.28
30021;BME280;16861;52.294;7.760;2022-12-26T05:30:19;99282.66;;;11.38;76.59
30021;BME280;16861;52.294;7.760;2022-12-26T05:32:46;99278.34;;;11.37;76.74
30021;BME280;16861;52.294;7.760;2022-12-26T05:35:32;99280.22;;;11.34;76.84
30021;BME280;16861;52.294;7.760;2022-12-26T05:38:00;99273.16;;;11.35;76.71
30021;BME280;16861;52.294;7.760;2022-12-26T05:40:26;99274.13;;;11.34;76.77
30021;BME280;16861;52.294;7.760;2022-12-26T05:42:53;99261.78;;;11.34;76.82
30021;BME280;16861;52.294;7.760;2022-12-26T05:45:20;99274.13;;;11.34;76.55
30021;BME280;16861;52.294;7.760;2022-12-26T05:47:46;99268.00;;;11.33;76.53
30021;BME280;16861;52.294;7.760;2022-12-26T05:50:17;99273.25;;;11.33;76.67
30021;BME280;16861;52.294;7.760;2022-12-26T05:52:44;99270.63;;;11.33;76.51
30021;BME280;16861;52.294;7.760;2022-12-26T05:55:10;99272.44;;;11.33;76.58
30021;BME280;16861;52.294;7.760;2022-12-26T05:57:37;99280.34;;;11.33;76.53
30021;BME280;16861;52.294;7.760;2022-12-26T06:00:04;99275.19;;;11.31;76.30
30021;BME280;16861;52.294;7.760;2022-12-26T06:02:30;99269.16;;;11.29;75.96
30021;BME280;16861;52.294;7.760;2022-12-26T06:04:57;99281.50;;;11.29;75.86
30021;BME280;16861;52.294;7.760;2022-12-26T06:07:24;99277.28;;;11.26;75.94
30021;BME280;16861;52.294;7.760;2022-12-26T06:09:50;99273.91;;;11.24;75.72
30021;BME280;16861;52.294;7.760;2022-12-26T06:12:17;99267.03;;;11.21;75.47
30021;BME280;16861;52.294;7.760;2022-12-26T06:14:43;99270.72;;;11.19;75.76
30021;BME280;16861;52.294;7.760;2022-12-26T06:17:10;99271.69;;;11.18;76.02
30021;BME280;16861;52.294;7.760;2022-12-26T06:19:36;99270.84;;;11.17;75.95
30021;BME280;16861;52.294;7.760;2022-12-26T06:22:11;99274.31;;;11.18;76.16
30021;BME280;16861;52.294;7.760;2022-12-26T06:24:38;99262.06;;;11.17;76.05
30021;BME280;16861;52.294;7.760;2022-12-26T06:27:04;99252.50;;;11.16;75.84
30021;BME280;16861;52.294;7.760;2022-12-26T06:29:31;99243.75;;;11.15;75.99
30021;BME280;16861;52.294;7.760;2022-12-26T06:31:58;99253.44;;;11.15;75.89
30021;BME280;16861;52.294;7.760;2022-12-26T06:34:24;99248.28;;;11.13;75.95
30021;BME280;16861;52.294;7.760;2022-12-26T06:36:53;99242.06;;;11.14;75.77
30021;BME280;16861;52.294;7.760;2022-12-26T06:39:23;99227.31;;;11.12;75.80
30021;BME280;16861;52.294;7.760;2022-12-26T06:41:50;99227.31;;;11.12;75.67
30021;BME280;16861;52.294;7.760;2022-12-26T06:44:16;99229.22;;;11.10;75.57
30021;BME280;16861;52.294;7.760;2022-12-26T06:46:44;99227.63;;;11.07;75.66
30021;BME280;16861;52.294;7.760;2022-12-26T06:49:11;99225.91;;;11.06;75.41
30021;BME280;16861;52.294;7.760;2022-12-26T06:51:38;99230.47;;;11.04;75.80
30021;BME280;16861;52.294;7.760;2022-12-26T06:54:05;99220.88;;;11.03;75.61
30021;BME280;16861;52.294;7.760;2022-12-26T06:56:32;99223.63;;;11.01;75.62
30021;BME280;16861;52.294;7.760;2022-12-26T06:59:04;99218.56;;;10.98;75.60
30021;BME280;16861;52.294;7.760;2022-12-26T07:01:33;99218.56;;;10.98;75.86
30021;BME280;16861;52.294;7.760;2022-12-26T07:04:01;99225.63;;;10.98;75.75
30021;BME280;16861;52.294;7.760;2022-12-26T07:06:32;99231.00;;;10.96;75.65
30021;BME280;16861;52.294;7.760;2022-12-26T07:09:06;99217.06;;;10.94;75.70
30021;BME280;16861;52.294;7.760;2022-12-26T07:11:36;99235.50;;;10.94;75.78
30021;BME280;16861;52.294;7.760;2022-12-26T07:14:03;99245.31;;;10.92;75.84
30021;BME280;16861;52.294;7.760;2022-12-26T07:16:33;99247.19;;;10.90;75.67
30021;BME280;16861;52.294;7.760;2022-12-26T07:18:59;99248.13;;;10.89;75.82
30021;BME280;16861;52.294;7.760;2022-12-26T07:21:26;99259.63;;;10.88;75.82
30021;BME280;16861;52.294;7.760;2022-12-26T07:23:54;99262.44;;;10.85;75.94
30021;BME280;16861;52.294;7.760;2022-12-26T07:26:22;99269.63;;;10.82;76.03
30021;BME280;16861;52.294;7.760;2022-12-26T07:28:57;99265.38;;;10.80;75.79
30021;BME280;16861;52.294;7.760;2022-12-26T07:31:24;99276.75;;;10.80;76.11
30021;BME280;16861;52.294;7.760;2022-12-26T07:33:54;99284.66;;;10.80;76.35
30021;BME280;16861;52.294;7.760;2022-12-26T07:36:23;99279.50;;;10.79;76.12
30021;BME280;16861;52.294;7.760;2022-12-26T07:38:52;99273.28;;;10.80;76.38
30021;BME280;16861;52.294;7.760;2022-12-26T07:41:19;99274.22;;;10.79;76.26
30021;BME280;16861;52.294;7.760;2022-12-26T07:44:04;99274.22;;;10.79;76.24
30021;BME280;16861;52.294;7.760;2022-12-26T07:46:32;99275.28;;;10.76;76.26
30021;BME280;16861;52.294;7.760;2022-12-26T07:48:59;99282.22;;;10.77;76.42
30021;BME280;16861;52.294;7.760;2022-12-26T07:51:26;99275.28;;;10.76;76.30
30021;BME280;16861;52.294;7.760;2022-12-26T07:53:53;99272.63;;;10.76;76.33
30021;BME280;16861;52.294;7.760;2022-12-26T07:56:19;99270.19;;;10.73;76.22
30021;BME280;16861;52.294;7.760;2022-12-26T07:58:49;99265.88;;;10.72;76.16
30021;BME280;16861;52.294;7.760;2022-12-26T08:01:16;99275.59;;;10.72;76.36
30021;BME280;16861;52.294;7.760;2022-12-26T08:03:43;99275.59;;;10.72;76.64
30021;BME280;16861;52.294;7.760;2022-12-26T08:06:10;99287.03;;;10.71;76.59
30021;BME280;16861;52.294;7.760;2022-12-26T08:08:37;99273.88;;;10.71;76.83
30021;BME280;16861;52.294;7.760;2022-12-26T08:11:05;99288.75;;;10.72;76.86
30021;BME280;16861;52.294;7.760;2022-12-26T08:13:33;99286.94;;;10.72;77.01
30021;BME280;16861;52.294;7.760;2022-12-26T08:16:05;99275.59;;;10.72;76.65
30021;BME280;16861;52.294;7.760;2022-12-26T08:18:32;99292.03;;;10.75;76.95
30021;BME280;16861;52.294;7.760;2022-12-26T08:20:59;99296.25;;;10.78;76.74
30021;BME280;16861;52.294;7.760;2022-12-26T08:23:26;99309.31;;;10.79;77.10
30021;BME280;16861;52.294;7.760;2022-12-26T08:25:53;99307.41;;;10.81;77.39
30021;BME280;16861;52.294;7.760;2022-12-26T08:28:19;99316.88;;;10.84;77.03
30021;BME280;16861;52.294;7.760;2022-12-26T08:30:45;99307.22;;;10.85;76.93
30021;BME280;16861;52.294;7.760;2022-12-26T08:33:12;99318.50;;;10.87;76.93
30021;BME280;16861;52.294;7.760;2022-12-26T08:35:38;99311.34;;;10.89;76.95
30021;BME280;16861;52.294;7.760;2022-12-26T08:38:06;99304.91;;;10.93;76.88
30021;BME280;16861;52.294;7.760;2022-12-26T08:40:33;99302.91;;;10.97;76.85
30021;BME280;16861;52.294;7.760;2022-12-26T08:43:09;99305.34;;;11.00;76.82
30021;BME280;16861;52.294;7.760;2022-12-26T08:46:07;99309.56;;;11.02;76.11
30021;BME280;16861;52.294;7.760;2022-12-26T08:48:35;99309.19;;;11.08;76.71
30021;BME280;16861;52.294;7.760;2022-12-26T08:51:07;99315.91;;;11.13;76.02
30021;BME280;16861;52.294;7.760;2022-12-26T08:53:35;99321.84;;;11.16;76.51
30021;BME280;16861;52.294;7.760;2022-12-26T08:56:03;99325.00;;;11.21;76.61
30021;BME280;16861;52.294;7.760;2022-12-26T08:58:31;99304.56;;;11.25;76.37
30021;BME280;16861;52.294;7.760;2022-12-26T09:01:15;99299.28;;;11.25;75.35
30021;BME280;16861;52.294;7.760;2022-12-26T09:03:43;99302.25;;;11.33;76.14
30021;BME280;16861;52.294;7.760;2022-12-26T09:06:11;99283.72;;;11.35;75.85
30021;BME280;16861;52.294;7.760;2022-12-26T09:08:38;99286.13;;;11.38;75.52
30021;BME280;16861;52.294;7.760;2022-12-26T09:11:12;99298.25;;;11.41;74.98
30021;BME280;16861;52.294;7.760;2022-12-26T09:13:40;99284.88;;;11.44;75.33
30021;BME280;16861;52.294;7.760;2022-12-26T09:16:14;99294.47;;;11.45;75.05
30021;BME280;16861;52.294;7.760;2022-12-26T09:18:41;99294.28;;;11.48;75.23
30021;BME280;16861;52.294;7.760;2022-12-26T09:21:09;99294.28;;;11.48;75.08
30021;BME280;16861;52.294;7.760;2022-12-26T09:23:37;99304.81;;;11.48;74.83
30021;BME280;16861;52.294;7.760;2022-12-26T09:26:16;99310.28;;;11.45;73.31
30021;BME280;16861;52.294;7.760;2022-12-26T09:28:44;99300.38;;;11.49;74.82
30021;BME280;16861;52.294;7.760;2022-12-26T09:31:14;99313.44;;;11.50;74.61
30021;BME280;16861;52.294;7.760;2022-12-26T09:33:41;99309.84;;;11.51;74.70
30021;BME280;16861;52.294;7.760;2022-12-26T09:36:11;99301.03;;;11.52;74.08
30021;BME280;16861;52.294;7.760;2022-12-26T09:38:41;99316.59;;;11.55;74.63
30021;BME280;16861;52.294;7.760;2022-12-26T09:41:24;99315.88;;;11.53;73.14
30021;BME280;16861;52.294;7.760;2022-12-26T09:44:21;99302.47;;;11.56;72.62
30021;BME280;16861;52.294;7.760;2022-12-26T09:49:37;99308.19;;;11.63;73.41
30021;BME280;16861;52.294;7.760;2022-12-26T09:52:13;99314.09;;;11.67;73.56
30021;BME280;16861;52.294;7.760;2022-12-26T09:54:51;99317.44;;;11.69;73.10
30021;BME280;16861;52.294;7.760;2022-12-26T09:57:23;99310.09;;;11.74;73.18
30021;BME280;16861;52.294;7.760;2022-12-26T10:00:00;99324.00;;;11.76;73.16
30021;BME280;16861;52.294;7.760;2022-12-26T10:02:29;99321.88;;;11.81;74.07
30021;BME280;16861;52.294;7.760;2022-12-26T10:04:56;99335.91;;;11.82;73.47
30021;BME280;16861;52.294;7.760;2022-12-26T10:07:45;99293.06;;;11.78;71.15
30021;BME280;16861;52.294;7.760;2022-12-26T10:10:20;99310.38;;;11.82;72.04
30021;BME280;16861;52.294;7.760;2022-12-26T10:15:30;99318.94;;;11.86;71.97
30021;BME280;16861;52.294;7.760;2022-12-26T10:26:39;99321.47;;;11.88;71.99
30021;BME280;16861;52.294;7.760;2022-12-26T10:29:17;99333.69;;;11.89;71.89
30021;BME280;16861;52.294;7.760;2022-12-26T10:31:49;99334.53;;;11.89;72.55
30021;BME280;16861;52.294;7.760;2022-12-26T10:34:27;99330.31;;;11.86;71.73
30021;BME280;16861;52.294;7.760;2022-12-26T10:37:00;99324.09;;;11.88;72.17
30021;BME280;16861;52.294;7.760;2022-12-26T10:39:44;99326.75;;;11.88;71.98
30021;BME280;16861;52.294;7.760;2022-12-26T10:42:29;99342.00;;;11.82;69.79
30021;BME280;16861;52.294;7.760;2022-12-26T10:44:57;99332.13;;;11.86;71.75
30021;BME280;16861;52.294;7.760;2022-12-26T10:47:27;99327.91;;;11.83;71.93
30021;BME280;16861;52.294;7.760;2022-12-26T10:49:55;99318.06;;;11.85;72.87
30021;BME280;16861;52.294;7.760;2022-12-26T10:52:30;99331.16;;;11.87;72.70
30021;BME280;16861;52.294;7.760;2022-12-26T10:54:58;99323.88;;;11.91;72.70
30021;BME280;16861;52.294;7.760;2022-12-26T10:57:47;99330.84;;;11.92;72.54
30021;BME280;16861;52.294;7.760;2022-12-26T11:00:21;99320.16;;;11.93;71.66
30021;BME280;16861;52.294;7.760;2022-12-26T11:03:10;99315.03;;;11.92;70.58
30021;BME280;16861;52.294;7.760;2022-12-26T11:05:39;99313.72;;;11.97;72.04
30021;BME280;16861;52.294;7.760;2022-12-26T11:08:46;99315.66;;;11.95;70.41
30021;BME280;16861;52.294;7.760;2022-12-26T11:13:53;99327.66;;;11.99;72.21
30021;BME280;16861;52.294;7.760;2022-12-26T11:16:37;99321.78;;;11.96;70.90
30021;BME280;16861;52.294;7.760;2022-12-26T11:19:05;99329.47;;;11.99;72.26
30021;BME280;16861;52.294;7.760;2022-12-26T11:21:32;99329.47;;;11.99;72.15
30021;BME280;16861;52.294;7.760;2022-12-26T11:26:35;99326.50;;;11.91;72.39
30021;BME280;16861;52.294;7.760;2022-12-26T11:31:33;99332.31;;;11.83;72.58
30021;BME280;16861;52.294;7.760;2022-12-26T11:33:59;99330.84;;;11.79;72.60
30021;BME280;16861;52.294;7.760;2022-12-26T11:36:27;99318.81;;;11.75;72.88
30021;BME280;16861;52.294;7.760;2022-12-26T11:39:01;99329.69;;;11.70;72.84
30021;BME280;16861;52.294;7.760;2022-12-26T11:44:03;99345.09;;;11.63;73.31
30021;BME280;16861;52.294;7.760;2022-12-26T11:46:46;99345.31;;;11.60;73.67
30021;BME280;16861;52.294;7.760;2022-12-26T11:49:36;99338.53;;;11.56;73.74
30021;BME280;16861;52.294;7.760;2022-12-26T11:52:30;99356.16;;;11.55;73.52
30021;BME280;16861;52.294;7.760;2022-12-26T11:54:59;99343.81;;;11.56;73.68
30021;BME280;16861;52.294;7.760;2022-12-26T11:57:28;99361.50;;;11.54;73.79
30021;BME280;16861;52.294;7.760;2022-12-26T12:00:14;99361.94;;;11.47;73.52
30021;BME280;16861;52.294;7.760;2022-12-26T12:02:41;99355.63;;;11.50;73.94
30021;BME280;16861;52.294;7.760;2022-12-26T12:05:33;99357.72;;;11.45;73.86
30021;BME280;16861;52.294;7.760;2022-12-26T12:08:13;99353.28;;;11.45;73.77
30021;BME280;16861;52.294;7.760;2022-12-26T12:13:23;99357.91;;;11.42;74.13
30021;BME280;16861;52.294;7.760;2022-12-26T12:18:49;99381.97;;;11.37;72.48
30021;BME280;16861;52.294;7.760;2022-12-26T12:21:31;99400.78;;;11.31;71.44
30021;BME280;16861;52.294;7.760;2022-12-26T12:29:36;99421.06;;;11.03;70.14
30021;BME280;16861;52.294;7.760;2022-12-26T12:32:22;99418.25;;;10.91;70.16
30021;BME280;16861;52.294;7.760;2022-12-26T12:36:15;99429.66;;;10.77;68.67
30021;BME280;16861;52.294;7.760;2022-12-26T12:38:30;99432.88;;;10.68;70.49
30021;BME280;16861;52.294;7.760;2022-12-26T12:41:27;99430.81;;;10.59;69.53
30021;BME280;16861;52.294;7.760;2022-12-26T12:44:25;99439.09;;;10.52;70.74
30021;BME280;16861;52.294;7.760;2022-12-26T12:47:09;99458.66;;;10.48;70.86
30021;BME280;16861;52.294;7.760;2022-12-26T12:49:44;99455.25;;;10.46;71.97
30021;BME280;16861;52.294;7.760;2022-12-26T13:00:44;99472.06;;;10.29;70.83
30021;BME280;16861;52.294;7.760;2022-12-26T13:03:27;99466.22;;;10.24;69.68
30021;BME280;16861;52.294;7.760;2022-12-26T13:06:08;99471.75;;;10.19;69.16
30021;BME280;16861;52.294;7.760;2022-12-26T13:14:05;99479.56;;;10.06;68.92
30021;BME280;16861;52.294;7.760;2022-12-26T13:16:39;99486.66;;;10.04;69.33
30021;BME280;16861;52.294;7.760;2022-12-26T13:19:23;99479.03;;;9.99;69.28
30021;BME280;16861;52.294;7.760;2022-12-26T13:21:53;99485.16;;;10.00;69.93
30021;BME280;16861;52.294;7.760;2022-12-26T13:24:37;99485.31;;;9.97;68.95
30021;BME280;16861;52.294;7.760;2022-12-26T13:27:24;99487.88;;;9.98;71.22
30021;BME280;16861;52.294;7.760;2022-12-26T13:29:52;99488.72;;;9.99;71.06
30021;BME280;16861;52.294;7.760;2022-12-26T13:34:46;99498.59;;;9.95;70.99
30021;BME280;16861;52.294;7.760;2022-12-26T13:39:59;99509.09;;;9.95;70.58
30021;BME280;16861;52.294;7.760;2022-12-26T13:50:49;99538.13;;;9.94;69.15
30021;BME280;16861;52.294;7.760;2022-12-26T13:53:37;99535.56;;;9.92;69.44
30021;BME280;16861;52.294;7.760;2022-12-26T14:15:48;99548.03;;;9.88;69.84
30021;BME280;16861;52.294;7.760;2022-12-26T14:26:23;99564.59;;;9.74;67.96
30021;BME280;16861;52.294;7.760;2022-12-26T14:29:11;99569.88;;;9.74;69.21
30021;BME280;16861;52.294;7.760;2022-12-26T14:34:59;99571.31;;;9.64;67.11
30021;BME280;16861;52.294;7.760;2022-12-26T14:37:35;99578.44;;;9.62;69.13
30021;BME280;16861;52.294;7.760;2022-12-26T14:43:34;99581.75;;;9.49;67.57
30021;BME280;16861;52.294;7.760;2022-12-26T14:45:53;99591.41;;;9.49;68.90
30021;BME280;16861;52.294;7.760;2022-12-26T14:50:50;99595.38;;;9.40;68.15
30021;BME280;16861;52.294;7.760;2022-12-26T14:58:37;99624.88;;;9.29;68.24
30021;BME280;16861;52.294;7.760;2022-12-26T15:14:13;99623.13;;;9.12;68.28
30021;BME280;16861;52.294;7.760;2022-12-26T15:33:27;99662.31;;;8.99;68.92
30021;BME280;16861;52.294;7.760;2022-12-26T15:36:12;99665.03;;;8.97;68.24
30021;BME280;16861;52.294;7.760;2022-12-26T15:38:48;99664.00;;;9.00;69.48
30021;BME280;16861;52.294;7.760;2022-12-26T15:46:26;99672.28;;;8.92;67.28
30021;BME280;16861;52.294;7.760;2022-12-26T15:54:57;99690.44;;;8.79;67.57
30021;BME280;16861;52.294;7.760;2022-12-26T16:00:39;99708.44;;;8.69;68.12
30021;BME280;16861;52.294;7.760;2022-12-26T16:04:01;99714.97;;;8.60;66.86
30021;BME280;16861;52.294;7.760;2022-12-26T16:08:54;99726.84;;;8.50;67.18
30021;BME280;16861;52.294;7.760;2022-12-26T16:16:53;99717.28;;;8.49;69.10
30021;BME280;16861;52.294;7.760;2022-12-26T16:19:22;99718.16;;;8.48;68.62
30021;BME280;16861;52.294;7.760;2022-12-26T16:21:56;99727.84;;;8.47;68.49
30021;BME280;16861;52.294;7.760;2022-12-26T16:24:44;99723.41;;;8.48;69.12
30021;BME280;16861;52.294;7.760;2022-12-26T16:27:18;99733.16;;;8.46;68.22
30021;BME280;16861;52.294;7.760;2022-12-26T16:29:54;99735.72;;;8.47;68.54
30021;BME280;16861;52.294;7.760;2022-12-26T16:32:36;99736.59;;;8.46;68.19
30021;BME280;16861;52.294;7.760;2022-12-26T16:35:05;99739.09;;;8.50;69.39
30021;BME280;16861;52.294;7.760;2022-12-26T16:37:32;99741.72;;;8.50;69.30
30021;BME280;16861;52.294;7.760;2022-12-26T16:42:53;99739.22;;;8.46;69.09
30021;BME280;16861;52.294;7.760;2022-12-26T16:45:21;99739.16;;;8.48;69.44
30021;BME280;16861;52.294;7.760;2022-12-26T16:47:48;99737.31;;;8.50;70.05
30021;BME280;16861;52.294;7.760;2022-12-26T16:50:36;99736.47;;;8.50;69.30
30021;BME280;16861;52.294;7.760;2022-12-26T16:55:42;99743.41;;;8.51;69.47
30021;BME280;16861;52.294;7.760;2022-12-26T16:58:13;99751.19;;;8.52;69.37
30021;BME280;16861;52.294;7.760;2022-12-26T17:06:06;99756.53;;;8.51;69.14
30021;BME280;16861;52.294;7.760;2022-12-26T17:08:33;99767.88;;;8.51;69.53